Aérodrome :
LOGIN :

S'inscrire | Disclaimer

   EN    FR    IT 

 










Légende :    VFR   VFR Marginal   IFR   IFR Intensif   IFR Très Intensif
Visi : 
Plafond : 
>= 8 km
>= 3000ft
5 à 8 km
1000 à 3000 ft
1500m à 5 km
500 à 1000 ft
800 à 1500m
200 à 500 ft
< 800m
< 200 ft
Symboles :   Orages  Brouillard  Fortes neiges  Fortes précipitations  Vent > 20 kt
SIGMETs :   Divers  Orages  Givrage  Turbulence  Onde Orograph.  Cendres Volcan.






- Altitude de l'aérodrome : 2776 ft
- Code IATA : VLL


LEVD - Valladolid

DERNIER METAR :
  • 011330Z 28005KT CAVOK 22/05 Q1018

METARs EXPIRÉS :
  • 011300Z 32006KT 270V040 CAVOK 21/05 Q1018
  • 011230Z 29006KT CAVOK 21/05 Q1018
  • 011200Z 30004KT 9999 FEW048 19/05 Q1019
  • 011130Z 31005KT 9999 FEW048 19/06 Q1019
  • 011100Z 27005KT 9999 FEW045 19/05 Q1019

TAF TAF LEVD
Valide du 01 à 09h jusqu'au 02 à 09h UTC


010800Z 0109/0209 06015KT CAVOK TX25/0115Z TN12/0205Z
BECMG 0109/0111 VRB05KT
PROB40
TEMPO 0111/0115 26007KT
PROB30
TEMPO 0115/0206 FEW050TCU
PROB40
TEMPO 0121/0203 VRB05KT
PROB30
TEMPO 0200/0206 SHRA



MET'MAP, la Météo Aéronautique d'un coup d'oeil ! - Copyright ORBIFLY Décembre 2007 - Disclaimer

ORBIFLY MET'MAP TEAM :

Programmation & Développement : Alexandra Zaïnal
Sur une idée originale de : Baudouin d'Aumeries
Assistance à la programmation : Marc-Olivier Méhu
Soutien technique & logistique : Manuel Goepfert

Contact : metmap@orbifly.com




SOURCES & CREDITS :

   NOAA